sensor_id;sensor_type;location;lat;lon;timestamp;temperature;humidity
42037;DHT22;30340;52.004;5.908;2023-04-03T00:01:32;5.20;72.20
42037;DHT22;30340;52.004;5.908;2023-04-03T00:03:57;5.20;72.20
42037;DHT22;30340;52.004;5.908;2023-04-03T00:06:23;5.20;72.20
42037;DHT22;30340;52.004;5.908;2023-04-03T00:08:50;5.20;72.20
42037;DHT22;30340;52.004;5.908;2023-04-03T00:11:16;5.20;72.20
42037;DHT22;30340;52.004;5.908;2023-04-03T00:13:42;5.20;72.30
42037;DHT22;30340;52.004;5.908;2023-04-03T00:16:08;5.10;72.20
42037;DHT22;30340;52.004;5.908;2023-04-03T00:18:35;5.10;72.30
42037;DHT22;30340;52.004;5.908;2023-04-03T00:21:01;5.10;72.30
42037;DHT22;30340;52.004;5.908;2023-04-03T00:23:27;5.10;72.40
42037;DHT22;30340;52.004;5.908;2023-04-03T00:25:53;5.10;72.50
42037;DHT22;30340;52.004;5.908;2023-04-03T00:28:18;5.10;72.40
42037;DHT22;30340;52.004;5.908;2023-04-03T00:30:44;5.10;72.40
42037;DHT22;30340;52.004;5.908;2023-04-03T00:33:13;5.10;72.40
42037;DHT22;30340;52.004;5.908;2023-04-03T00:35:39;5.00;72.40
42037;DHT22;30340;52.004;5.908;2023-04-03T00:38:05;4.90;72.50
42037;DHT22;30340;52.004;5.908;2023-04-03T00:40:37;4.90;72.70
42037;DHT22;30340;52.004;5.908;2023-04-03T00:43:13;4.90;72.90
42037;DHT22;30340;52.004;5.908;2023-04-03T00:45:42;4.90;72.90
42037;DHT22;30340;52.004;5.908;2023-04-03T00:48:11;4.90;72.90
42037;DHT22;30340;52.004;5.908;2023-04-03T00:50:40;4.90;72.90
42037;DHT22;30340;52.004;5.908;2023-04-03T00:53:08;4.90;73.00
42037;DHT22;30340;52.004;5.908;2023-04-03T00:55:36;4.90;73.00
42037;DHT22;30340;52.004;5.908;2023-04-03T00:58:03;4.90;73.00
42037;DHT22;30340;52.004;5.908;2023-04-03T01:00:30;4.80;73.00
42037;DHT22;30340;52.004;5.908;2023-04-03T01:02:55;4.80;73.10
42037;DHT22;30340;52.004;5.908;2023-04-03T01:05:21;4.80;73.20
42037;DHT22;30340;52.004;5.908;2023-04-03T01:07:49;4.80;73.30
42037;DHT22;30340;52.004;5.908;2023-04-03T01:10:16;4.80;73.30
42037;DHT22;30340;52.004;5.908;2023-04-03T01:12:45;4.80;73.30
42037;DHT22;30340;52.004;5.908;2023-04-03T01:15:18;4.80;73.40
42037;DHT22;30340;52.004;5.908;2023-04-03T01:17:55;4.80;73.50
42037;DHT22;30340;52.004;5.908;2023-04-03T01:25:52;4.70;73.60
42037;DHT22;30340;52.004;5.908;2023-04-03T01:28:39;4.70;73.60
42037;DHT22;30340;52.004;5.908;2023-04-03T01:33:45;4.70;73.80
42037;DHT22;30340;52.004;5.908;2023-04-03T01:36:16;4.70;73.80
42037;DHT22;30340;52.004;5.908;2023-04-03T01:38:42;4.70;74.00
42037;DHT22;30340;52.004;5.908;2023-04-03T01:41:07;4.70;74.10
42037;DHT22;30340;52.004;5.908;2023-04-03T01:43:33;4.70;74.30
42037;DHT22;30340;52.004;5.908;2023-04-03T01:45:59;4.70;74.40
42037;DHT22;30340;52.004;5.908;2023-04-03T01:48:24;4.70;74.50
42037;DHT22;30340;52.004;5.908;2023-04-03T01:50:50;4.60;75.00
42037;DHT22;30340;52.004;5.908;2023-04-03T01:53:15;4.60;75.10
42037;DHT22;30340;52.004;5.908;2023-04-03T01:55:41;4.60;75.10
42037;DHT22;30340;52.004;5.908;2023-04-03T01:58:06;4.60;75.20
42037;DHT22;30340;52.004;5.908;2023-04-03T02:00:32;4.60;75.30
42037;DHT22;30340;52.004;5.908;2023-04-03T02:02:58;4.60;75.50
42037;DHT22;30340;52.004;5.908;2023-04-03T02:05:23;4.60;75.60
42037;DHT22;30340;52.004;5.908;2023-04-03T02:07:49;4.60;75.60
42037;DHT22;30340;52.004;5.908;2023-04-03T02:10:14;4.60;75.70
42037;DHT22;30340;52.004;5.908;2023-04-03T02:12:40;4.70;75.70
42037;DHT22;30340;52.004;5.908;2023-04-03T02:15:06;4.70;75.70
42037;DHT22;30340;52.004;5.908;2023-04-03T02:17:32;4.60;75.70
42037;DHT22;30340;52.004;5.908;2023-04-03T02:19:57;4.60;75.80
42037;DHT22;30340;52.004;5.908;2023-04-03T02:22:23;4.60;76.10
42037;DHT22;30340;52.004;5.908;2023-04-03T02:24:49;4.60;76.20
42037;DHT22;30340;52.004;5.908;2023-04-03T02:27:14;4.60;76.20
42037;DHT22;30340;52.004;5.908;2023-04-03T02:29:41;4.60;76.20
42037;DHT22;30340;52.004;5.908;2023-04-03T02:32:06;4.60;76.20
42037;DHT22;30340;52.004;5.908;2023-04-03T02:34:32;4.60;76.20
42037;DHT22;30340;52.004;5.908;2023-04-03T02:36:57;4.60;76.20
42037;DHT22;30340;52.004;5.908;2023-04-03T02:39:23;4.60;76.20
42037;DHT22;30340;52.004;5.908;2023-04-03T02:41:48;4.60;76.30
42037;DHT22;30340;52.004;5.908;2023-04-03T02:44:14;4.60;76.30
42037;DHT22;30340;52.004;5.908;2023-04-03T02:46:39;4.60;76.40
42037;DHT22;30340;52.004;5.908;2023-04-03T02:49:05;4.50;76.40
42037;DHT22;30340;52.004;5.908;2023-04-03T02:51:31;4.50;76.40
42037;DHT22;30340;52.004;5.908;2023-04-03T02:53:57;4.50;76.60
42037;DHT22;30340;52.004;5.908;2023-04-03T02:56:23;4.40;77.00
42037;DHT22;30340;52.004;5.908;2023-04-03T02:58:48;4.40;77.10
42037;DHT22;30340;52.004;5.908;2023-04-03T03:01:14;4.40;77.10
42037;DHT22;30340;52.004;5.908;2023-04-03T03:03:40;4.40;77.00
42037;DHT22;30340;52.004;5.908;2023-04-03T03:06:10;4.40;77.10
42037;DHT22;30340;52.004;5.908;2023-04-03T03:08:37;4.40;77.10
42037;DHT22;30340;52.004;5.908;2023-04-03T03:11:03;4.40;77.10
42037;DHT22;30340;52.004;5.908;2023-04-03T03:13:32;4.40;77.10
42037;DHT22;30340;52.004;5.908;2023-04-03T03:15:58;4.30;77.20
42037;DHT22;30340;52.004;5.908;2023-04-03T03:18:24;4.30;77.20
42037;DHT22;30340;52.004;5.908;2023-04-03T03:20:54;4.30;77.30
42037;DHT22;30340;52.004;5.908;2023-04-03T03:23:21;4.30;77.40
42037;DHT22;30340;52.004;5.908;2023-04-03T03:25:47;4.30;77.40
42037;DHT22;30340;52.004;5.908;2023-04-03T03:28:13;4.30;77.40
42037;DHT22;30340;52.004;5.908;2023-04-03T03:30:39;4.20;77.40
42037;DHT22;30340;52.004;5.908;2023-04-03T03:33:04;4.20;77.50
42037;DHT22;30340;52.004;5.908;2023-04-03T03:35:30;4.10;77.50
42037;DHT22;30340;52.004;5.908;2023-04-03T03:37:55;4.20;77.70
42037;DHT22;30340;52.004;5.908;2023-04-03T03:40:21;4.10;77.70
42037;DHT22;30340;52.004;5.908;2023-04-03T03:42:47;4.10;77.80
42037;DHT22;30340;52.004;5.908;2023-04-03T03:45:12;4.10;77.90
42037;DHT22;30340;52.004;5.908;2023-04-03T03:47:38;4.10;77.90
42037;DHT22;30340;52.004;5.908;2023-04-03T03:50:04;4.00;78.60
42037;DHT22;30340;52.004;5.908;2023-04-03T03:52:29;4.00;78.10
42037;DHT22;30340;52.004;5.908;2023-04-03T03:54:55;4.00;78.10
42037;DHT22;30340;52.004;5.908;2023-04-03T03:57:21;3.90;78.10
42037;DHT22;30340;52.004;5.908;2023-04-03T03:59:47;3.90;78.20
42037;DHT22;30340;52.004;5.908;2023-04-03T04:02:14;3.90;78.30
42037;DHT22;30340;52.004;5.908;2023-04-03T04:04:39;3.90;78.40
42037;DHT22;30340;52.004;5.908;2023-04-03T04:07:05;3.80;78.50
42037;DHT22;30340;52.004;5.908;2023-04-03T04:09:31;3.80;78.60
42037;DHT22;30340;52.004;5.908;2023-04-03T04:11:56;3.80;78.50
42037;DHT22;30340;52.004;5.908;2023-04-03T04:14:22;3.80;78.60
42037;DHT22;30340;52.004;5.908;2023-04-03T04:16:47;3.70;78.60
42037;DHT22;30340;52.004;5.908;2023-04-03T04:19:13;3.70;78.70
42037;DHT22;30340;52.004;5.908;2023-04-03T04:21:39;3.70;78.80
42037;DHT22;30340;52.004;5.908;2023-04-03T04:24:05;3.70;78.80
42037;DHT22;30340;52.004;5.908;2023-04-03T04:26:31;3.70;78.90
42037;DHT22;30340;52.004;5.908;2023-04-03T04:28:57;3.70;79.00
42037;DHT22;30340;52.004;5.908;2023-04-03T04:31:22;3.70;79.10
42037;DHT22;30340;52.004;5.908;2023-04-03T04:33:48;3.60;79.30
42037;DHT22;30340;52.004;5.908;2023-04-03T04:36:13;3.60;79.30
42037;DHT22;30340;52.004;5.908;2023-04-03T04:38:40;3.60;79.40
42037;DHT22;30340;52.004;5.908;2023-04-03T04:41:06;3.60;79.40
42037;DHT22;30340;52.004;5.908;2023-04-03T04:43:31;3.60;79.50
42037;DHT22;30340;52.004;5.908;2023-04-03T04:46:05;3.60;79.50
42037;DHT22;30340;52.004;5.908;2023-04-03T04:48:31;3.50;79.80
42037;DHT22;30340;52.004;5.908;2023-04-03T04:50:57;3.40;79.70
42037;DHT22;30340;52.004;5.908;2023-04-03T04:53:23;3.50;79.80
42037;DHT22;30340;52.004;5.908;2023-04-03T04:55:48;3.40;79.70
42037;DHT22;30340;52.004;5.908;2023-04-03T04:58:14;3.40;79.70
42037;DHT22;30340;52.004;5.908;2023-04-03T05:00:41;3.40;79.80
42037;DHT22;30340;52.004;5.908;2023-04-03T05:03:06;3.40;79.90
42037;DHT22;30340;52.004;5.908;2023-04-03T05:05:32;3.30;79.90
42037;DHT22;30340;52.004;5.908;2023-04-03T05:07:58;3.30;80.00
42037;DHT22;30340;52.004;5.908;2023-04-03T05:10:23;3.30;80.00
42037;DHT22;30340;52.004;5.908;2023-04-03T05:12:49;3.30;80.20
42037;DHT22;30340;52.004;5.908;2023-04-03T05:15:14;3.20;80.30
42037;DHT22;30340;52.004;5.908;2023-04-03T05:17:40;3.20;80.40
42037;DHT22;30340;52.004;5.908;2023-04-03T05:20:06;3.20;80.50
42037;DHT22;30340;52.004;5.908;2023-04-03T05:22:32;3.20;80.60
42037;DHT22;30340;52.004;5.908;2023-04-03T05:24:57;3.10;80.80
42037;DHT22;30340;52.004;5.908;2023-04-03T05:27:23;3.00;81.00
42037;DHT22;30340;52.004;5.908;2023-04-03T05:29:50;3.00;81.20
42037;DHT22;30340;52.004;5.908;2023-04-03T05:32:15;3.00;81.40
42037;DHT22;30340;52.004;5.908;2023-04-03T05:34:41;3.00;81.40
42037;DHT22;30340;52.004;5.908;2023-04-03T05:37:07;3.00;81.50
42037;DHT22;30340;52.004;5.908;2023-04-03T05:39:33;3.00;81.40
42037;DHT22;30340;52.004;5.908;2023-04-03T05:41:59;3.00;81.30
42037;DHT22;30340;52.004;5.908;2023-04-03T05:44:24;3.10;81.30
42037;DHT22;30340;52.004;5.908;2023-04-03T05:46:50;3.10;81.20
42037;DHT22;30340;52.004;5.908;2023-04-03T05:49:16;3.40;81.30
42037;DHT22;30340;52.004;5.908;2023-04-03T05:51:41;3.90;81.00
42037;DHT22;30340;52.004;5.908;2023-04-03T05:56:37;6.30;76.60
42037;DHT22;30340;52.004;5.908;2023-04-03T05:59:02;7.20;71.90
42037;DHT22;30340;52.004;5.908;2023-04-03T06:01:28;8.20;68.70
42037;DHT22;30340;52.004;5.908;2023-04-03T06:03:53;8.60;65.00
42037;DHT22;30340;52.004;5.908;2023-04-03T06:06:19;9.20;63.90
42037;DHT22;30340;52.004;5.908;2023-04-03T06:08:45;10.00;62.20
42037;DHT22;30340;52.004;5.908;2023-04-03T06:11:11;10.70;59.00
42037;DHT22;30340;52.004;5.908;2023-04-03T06:13:37;11.00;58.30
42037;DHT22;30340;52.004;5.908;2023-04-03T06:16:02;11.40;56.80
42037;DHT22;30340;52.004;5.908;2023-04-03T06:18:29;11.60;56.00
42037;DHT22;30340;52.004;5.908;2023-04-03T06:20:55;11.90;55.20
42037;DHT22;30340;52.004;5.908;2023-04-03T06:23:21;12.30;54.20
42037;DHT22;30340;52.004;5.908;2023-04-03T06:25:46;13.00;53.50
42037;DHT22;30340;52.004;5.908;2023-04-03T06:28:12;13.70;52.70
42037;DHT22;30340;52.004;5.908;2023-04-03T06:30:38;13.90;51.10
42037;DHT22;30340;52.004;5.908;2023-04-03T06:33:03;14.20;49.80
42037;DHT22;30340;52.004;5.908;2023-04-03T06:35:29;14.30;49.10
42037;DHT22;30340;52.004;5.908;2023-04-03T06:37:56;14.70;48.90
42037;DHT22;30340;52.004;5.908;2023-04-03T06:40:24;15.30;47.00
42037;DHT22;30340;52.004;5.908;2023-04-03T06:42:50;15.70;47.50
42037;DHT22;30340;52.004;5.908;2023-04-03T06:45:16;15.80;45.80
42037;DHT22;30340;52.004;5.908;2023-04-03T06:47:41;16.10;45.20
42037;DHT22;30340;52.004;5.908;2023-04-03T06:50:08;15.80;44.50
42037;DHT22;30340;52.004;5.908;2023-04-03T06:52:36;16.40;43.70
42037;DHT22;30340;52.004;5.908;2023-04-03T06:55:02;16.00;43.20
42037;DHT22;30340;52.004;5.908;2023-04-03T06:57:28;16.20;43.80
42037;DHT22;30340;52.004;5.908;2023-04-03T06:59:53;16.30;42.50
42037;DHT22;30340;52.004;5.908;2023-04-03T07:02:19;15.90;42.10
42037;DHT22;30340;52.004;5.908;2023-04-03T07:04:46;15.70;41.50
42037;DHT22;30340;52.004;5.908;2023-04-03T07:07:11;15.80;42.60
42037;DHT22;30340;52.004;5.908;2023-04-03T07:09:37;15.50;41.00
42037;DHT22;30340;52.004;5.908;2023-04-03T07:12:02;15.50;41.80
42037;DHT22;30340;52.004;5.908;2023-04-03T07:14:28;15.10;41.00
42037;DHT22;30340;52.004;5.908;2023-04-03T07:16:54;15.20;42.10
42037;DHT22;30340;52.004;5.908;2023-04-03T07:19:19;15.20;41.50
42037;DHT22;30340;52.004;5.908;2023-04-03T07:21:45;15.30;42.10
42037;DHT22;30340;52.004;5.908;2023-04-03T07:24:11;15.50;41.00
42037;DHT22;30340;52.004;5.908;2023-04-03T07:26:36;15.00;40.90
42037;DHT22;30340;52.004;5.908;2023-04-03T07:29:02;13.50;42.40
42037;DHT22;30340;52.004;5.908;2023-04-03T07:31:28;12.10;44.60
42037;DHT22;30340;52.004;5.908;2023-04-03T07:33:53;11.10;45.60
42037;DHT22;30340;52.004;5.908;2023-04-03T07:36:21;10.30;47.20
42037;DHT22;30340;52.004;5.908;2023-04-03T07:38:47;9.80;48.80
42037;DHT22;30340;52.004;5.908;2023-04-03T07:41:17;9.40;49.90
42037;DHT22;30340;52.004;5.908;2023-04-03T07:43:44;9.30;50.60
42037;DHT22;30340;52.004;5.908;2023-04-03T07:46:10;9.00;50.10
42037;DHT22;30340;52.004;5.908;2023-04-03T07:48:39;8.80;50.70
42037;DHT22;30340;52.004;5.908;2023-04-03T07:51:05;8.60;51.70
42037;DHT22;30340;52.004;5.908;2023-04-03T07:53:31;8.30;52.20
42037;DHT22;30340;52.004;5.908;2023-04-03T07:55:58;8.10;52.40
42037;DHT22;30340;52.004;5.908;2023-04-03T07:58:24;7.90;52.70
42037;DHT22;30340;52.004;5.908;2023-04-03T08:00:51;7.70;52.60
42037;DHT22;30340;52.004;5.908;2023-04-03T08:03:16;7.70;53.50
42037;DHT22;30340;52.004;5.908;2023-04-03T08:05:45;7.60;53.20
42037;DHT22;30340;52.004;5.908;2023-04-03T08:08:13;7.40;52.40
42037;DHT22;30340;52.004;5.908;2023-04-03T08:10:39;7.40;52.90
42037;DHT22;30340;52.004;5.908;2023-04-03T08:13:05;7.40;53.10
42037;DHT22;30340;52.004;5.908;2023-04-03T08:15:31;7.40;52.90
42037;DHT22;30340;52.004;5.908;2023-04-03T08:17:57;7.50;53.00
42037;DHT22;30340;52.004;5.908;2023-04-03T08:20:23;7.60;52.80
42037;DHT22;30340;52.004;5.908;2023-04-03T08:22:49;7.60;51.70
42037;DHT22;30340;52.004;5.908;2023-04-03T08:25:14;7.60;51.50
42037;DHT22;30340;52.004;5.908;2023-04-03T08:27:40;7.70;50.00
42037;DHT22;30340;52.004;5.908;2023-04-03T08:30:07;7.80;49.40
42037;DHT22;30340;52.004;5.908;2023-04-03T08:32:36;7.70;48.30
42037;DHT22;30340;52.004;5.908;2023-04-03T08:35:02;7.60;46.90
42037;DHT22;30340;52.004;5.908;2023-04-03T08:37:28;7.50;46.80
42037;DHT22;30340;52.004;5.908;2023-04-03T08:39:54;7.40;46.20
42037;DHT22;30340;52.004;5.908;2023-04-03T08:42:41;7.50;46.70
42037;DHT22;30340;52.004;5.908;2023-04-03T08:50:19;7.60;48.80
42037;DHT22;30340;52.004;5.908;2023-04-03T08:52:51;7.70;48.30
42037;DHT22;30340;52.004;5.908;2023-04-03T08:57:44;7.80;43.50
42037;DHT22;30340;52.004;5.908;2023-04-03T09:02:45;7.80;43.40
42037;DHT22;30340;52.004;5.908;2023-04-03T09:05:16;7.80;43.10
42037;DHT22;30340;52.004;5.908;2023-04-03T09:08:35;7.90;43.90
42037;DHT22;30340;52.004;5.908;2023-04-03T09:10:42;8.00;43.10
42037;DHT22;30340;52.004;5.908;2023-04-03T09:13:26;8.00;41.10
42037;DHT22;30340;52.004;5.908;2023-04-03T09:15:56;8.00;40.70
42037;DHT22;30340;52.004;5.908;2023-04-03T09:18:43;8.00;40.80
42037;DHT22;30340;52.004;5.908;2023-04-03T09:21:22;8.10;41.10
42037;DHT22;30340;52.004;5.908;2023-04-03T09:23:52;8.10;40.20
42037;DHT22;30340;52.004;5.908;2023-04-03T09:26:45;8.00;38.00
42037;DHT22;30340;52.004;5.908;2023-04-03T09:29:23;8.00;38.60
42037;DHT22;30340;52.004;5.908;2023-04-03T09:31:55;8.00;36.70
42037;DHT22;30340;52.004;5.908;2023-04-03T09:34:35;7.90;36.80
42037;DHT22;30340;52.004;5.908;2023-04-03T09:37:03;8.00;37.60
42037;DHT22;30340;52.004;5.908;2023-04-03T09:39:33;7.90;37.20
42037;DHT22;30340;52.004;5.908;2023-04-03T09:42:22;8.00;37.80
42037;DHT22;30340;52.004;5.908;2023-04-03T09:44:57;8.00;37.70
42037;DHT22;30340;52.004;5.908;2023-04-03T09:47:31;8.00;36.60
42037;DHT22;30340;52.004;5.908;2023-04-03T09:52:47;8.00;36.80
42037;DHT22;30340;52.004;5.908;2023-04-03T09:57:46;8.00;37.40
42037;DHT22;30340;52.004;5.908;2023-04-03T10:00:23;7.90;37.60
42037;DHT22;30340;52.004;5.908;2023-04-03T10:02:54;8.00;38.50
42037;DHT22;30340;52.004;5.908;2023-04-03T10:05:28;8.10;38.30
42037;DHT22;30340;52.004;5.908;2023-04-03T10:08:09;8.00;38.60
42037;DHT22;30340;52.004;5.908;2023-04-03T10:10:35;8.10;37.30
42037;DHT22;30340;52.004;5.908;2023-04-03T10:13:12;8.10;38.40
42037;DHT22;30340;52.004;5.908;2023-04-03T10:16:00;8.20;39.20
42037;DHT22;30340;52.004;5.908;2023-04-03T10:18:52;8.40;39.50
42037;DHT22;30340;52.004;5.908;2023-04-03T10:24:10;8.40;39.50
42037;DHT22;30340;52.004;5.908;2023-04-03T10:27:10;8.50;39.80
42037;DHT22;30340;52.004;5.908;2023-04-03T10:30:02;8.60;39.30
42037;DHT22;30340;52.004;5.908;2023-04-03T10:36:00;8.40;40.10
42037;DHT22;30340;52.004;5.908;2023-04-03T10:38:48;8.40;40.20
42037;DHT22;30340;52.004;5.908;2023-04-03T10:47:13;8.50;41.10
42037;DHT22;30340;52.004;5.908;2023-04-03T10:52:24;8.60;41.00
42037;DHT22;30340;52.004;5.908;2023-04-03T10:57:23;8.70;41.40
42037;DHT22;30340;52.004;5.908;2023-04-03T10:59:56;8.80;41.00
42037;DHT22;30340;52.004;5.908;2023-04-03T11:04:55;8.80;39.70
42037;DHT22;30340;52.004;5.908;2023-04-03T11:07:39;8.70;39.40
42037;DHT22;30340;52.004;5.908;2023-04-03T11:10:13;8.80;39.70
42037;DHT22;30340;52.004;5.908;2023-04-03T11:15:13;9.00;39.80
42037;DHT22;30340;52.004;5.908;2023-04-03T11:17:41;9.00;38.80
42037;DHT22;30340;52.004;5.908;2023-04-03T11:20:26;9.10;39.80
42037;DHT22;30340;52.004;5.908;2023-04-03T11:23:00;9.10;39.00
42037;DHT22;30340;52.004;5.908;2023-04-03T11:25:30;9.30;39.00
42037;DHT22;30340;52.004;5.908;2023-04-03T11:28:02;9.30;37.90
42037;DHT22;30340;52.004;5.908;2023-04-03T11:33:51;9.30;38.40
42037;DHT22;30340;52.004;5.908;2023-04-03T11:36:29;9.30;37.90
42037;DHT22;30340;52.004;5.908;2023-04-03T11:39:00;9.20;37.70
42037;DHT22;30340;52.004;5.908;2023-04-03T11:41:31;9.30;38.20
42037;DHT22;30340;52.004;5.908;2023-04-03T11:46:50;9.30;38.10
42037;DHT22;30340;52.004;5.908;2023-04-03T12:13:34;9.90;39.30
42037;DHT22;30340;52.004;5.908;2023-04-03T12:16:00;9.90;38.90
42037;DHT22;30340;52.004;5.908;2023-04-03T12:18:55;9.80;38.60
42037;DHT22;30340;52.004;5.908;2023-04-03T12:21:22;9.80;39.60
42037;DHT22;30340;52.004;5.908;2023-04-03T12:27:16;9.90;39.90
42037;DHT22;30340;52.004;5.908;2023-04-03T12:29:55;9.90;40.10
42037;DHT22;30340;52.004;5.908;2023-04-03T12:46:11;10.10;38.20
42037;DHT22;30340;52.004;5.908;2023-04-03T12:48:57;10.00;37.80
42037;DHT22;30340;52.004;5.908;2023-04-03T12:51:44;10.00;38.30
42037;DHT22;30340;52.004;5.908;2023-04-03T12:54:22;10.00;39.40
42037;DHT22;30340;52.004;5.908;2023-04-03T12:56:48;9.90;38.90
42037;DHT22;30340;52.004;5.908;2023-04-03T12:59:23;10.00;38.60
42037;DHT22;30340;52.004;5.908;2023-04-03T13:01:56;10.00;39.10
42037;DHT22;30340;52.004;5.908;2023-04-03T13:04:23;10.10;39.60
42037;DHT22;30340;52.004;5.908;2023-04-03T13:06:48;10.20;39.80
42037;DHT22;30340;52.004;5.908;2023-04-03T13:09:26;10.30;39.30
42037;DHT22;30340;52.004;5.908;2023-04-03T13:12:10;10.40;39.50
42037;DHT22;30340;52.004;5.908;2023-04-03T13:14:37;10.40;38.80
42037;DHT22;30340;52.004;5.908;2023-04-03T13:17:15;10.30;39.30
42037;DHT22;30340;52.004;5.908;2023-04-03T13:19:43;10.30;39.20
42037;DHT22;30340;52.004;5.908;2023-04-03T13:22:28;10.20;38.90
42037;DHT22;30340;52.004;5.908;2023-04-03T13:25:00;10.20;39.60
42037;DHT22;30340;52.004;5.908;2023-04-03T13:27:28;10.30;39.50
42037;DHT22;30340;52.004;5.908;2023-04-03T13:29:57;10.30;39.50
42037;DHT22;30340;52.004;5.908;2023-04-03T13:32:27;10.40;39.50
42037;DHT22;30340;52.004;5.908;2023-04-03T13:34:53;10.40;39.10
42037;DHT22;30340;52.004;5.908;2023-04-03T13:37:22;10.50;38.70
42037;DHT22;30340;52.004;5.908;2023-04-03T13:39:58;10.30;38.80
42037;DHT22;30340;52.004;5.908;2023-04-03T13:42:26;10.30;39.30
42037;DHT22;30340;52.004;5.908;2023-04-03T13:45:22;10.40;39.80
42037;DHT22;30340;52.004;5.908;2023-04-03T13:47:51;10.40;39.60
42037;DHT22;30340;52.004;5.908;2023-04-03T13:50:24;10.40;39.90
42037;DHT22;30340;52.004;5.908;2023-04-03T13:52:55;10.50;40.20
42037;DHT22;30340;52.004;5.908;2023-04-03T13:55:27;10.50;40.30
42037;DHT22;30340;52.004;5.908;2023-04-03T13:58:01;10.70;39.70
42037;DHT22;30340;52.004;5.908;2023-04-03T14:00:47;10.70;40.20
42037;DHT22;30340;52.004;5.908;2023-04-03T14:03:25;10.70;40.50
42037;DHT22;30340;52.004;5.908;2023-04-03T14:05:53;11.00;40.10
42037;DHT22;30340;52.004;5.908;2023-04-03T14:08:19;10.90;39.60
42037;DHT22;30340;52.004;5.908;2023-04-03T14:10:45;10.80;40.60
42037;DHT22;30340;52.004;5.908;2023-04-03T14:13:17;10.90;40.50
42037;DHT22;30340;52.004;5.908;2023-04-03T14:15:44;11.00;40.90
42037;DHT22;30340;52.004;5.908;2023-04-03T14:18:12;10.90;39.20
42037;DHT22;30340;52.004;5.908;2023-04-03T14:20:38;10.70;39.80
42037;DHT22;30340;52.004;5.908;2023-04-03T14:23:04;10.60;39.70
42037;DHT22;30340;52.004;5.908;2023-04-03T14:25:29;10.60;40.50
42037;DHT22;30340;52.004;5.908;2023-04-03T14:27:55;10.80;41.20
42037;DHT22;30340;52.004;5.908;2023-04-03T14:32:51;10.80;40.80
42037;DHT22;30340;52.004;5.908;2023-04-03T14:35:18;10.90;41.00
42037;DHT22;30340;52.004;5.908;2023-04-03T14:37:44;10.80;41.00
42037;DHT22;30340;52.004;5.908;2023-04-03T14:40:20;10.90;40.80
42037;DHT22;30340;52.004;5.908;2023-04-03T14:42:46;10.80;41.00
42037;DHT22;30340;52.004;5.908;2023-04-03T14:45:14;10.70;41.20
42037;DHT22;30340;52.004;5.908;2023-04-03T14:47:52;10.80;41.70
42037;DHT22;30340;52.004;5.908;2023-04-03T14:50:24;10.70;41.40
42037;DHT22;30340;52.004;5.908;2023-04-03T14:52:51;10.80;42.40
42037;DHT22;30340;52.004;5.908;2023-04-03T14:55:20;10.80;42.40
42037;DHT22;30340;52.004;5.908;2023-04-03T14:57:45;10.80;42.30
42037;DHT22;30340;52.004;5.908;2023-04-03T15:00:14;10.80;42.10
42037;DHT22;30340;52.004;5.908;2023-04-03T15:02:40;10.90;42.50
42037;DHT22;30340;52.004;5.908;2023-04-03T15:05:08;10.90;42.50
42037;DHT22;30340;52.004;5.908;2023-04-03T15:07:38;10.80;42.40
42037;DHT22;30340;52.004;5.908;2023-04-03T15:12:41;10.90;41.90
42037;DHT22;30340;52.004;5.908;2023-04-03T15:15:07;10.80;42.60
42037;DHT22;30340;52.004;5.908;2023-04-03T15:17:33;10.80;42.50
42037;DHT22;30340;52.004;5.908;2023-04-03T15:20:00;10.70;42.80
42037;DHT22;30340;52.004;5.908;2023-04-03T15:22:26;10.70;42.30
42037;DHT22;30340;52.004;5.908;2023-04-03T15:24:51;10.50;42.10
42037;DHT22;30340;52.004;5.908;2023-04-03T15:27:17;10.40;42.10
42037;DHT22;30340;52.004;5.908;2023-04-03T15:29:43;10.40;42.50
42037;DHT22;30340;52.004;5.908;2023-04-03T15:32:10;10.30;42.90
42037;DHT22;30340;52.004;5.908;2023-04-03T15:34:36;10.30;42.70
42037;DHT22;30340;52.004;5.908;2023-04-03T15:37:02;10.20;43.10
42037;DHT22;30340;52.004;5.908;2023-04-03T15:39:28;10.20;43.50
42037;DHT22;30340;52.004;5.908;2023-04-03T15:41:54;10.20;43.50
42037;DHT22;30340;52.004;5.908;2023-04-03T15:44:22;10.10;43.80
42037;DHT22;30340;52.004;5.908;2023-04-03T15:46:48;10.00;44.00
42037;DHT22;30340;52.004;5.908;2023-04-03T15:49:17;9.90;44.40
42037;DHT22;30340;52.004;5.908;2023-04-03T15:51:42;9.80;44.50
42037;DHT22;30340;52.004;5.908;2023-04-03T15:54:08;9.80;44.90
42037;DHT22;30340;52.004;5.908;2023-04-03T15:56:34;9.70;44.20
42037;DHT22;30340;52.004;5.908;2023-04-03T15:58:59;9.70;44.10
42037;DHT22;30340;52.004;5.908;2023-04-03T16:01:25;9.60;44.20
42037;DHT22;30340;52.004;5.908;2023-04-03T16:03:50;9.60;44.40
42037;DHT22;30340;52.004;5.908;2023-04-03T16:06:17;9.70;44.70
42037;DHT22;30340;52.004;5.908;2023-04-03T16:08:44;9.70;44.80
42037;DHT22;30340;52.004;5.908;2023-04-03T16:11:10;9.70;44.80
42037;DHT22;30340;52.004;5.908;2023-04-03T16:13:35;9.70;44.90
42037;DHT22;30340;52.004;5.908;2023-04-03T16:16:01;9.70;44.70
42037;DHT22;30340;52.004;5.908;2023-04-03T16:18:28;9.60;45.00
42037;DHT22;30340;52.004;5.908;2023-04-03T16:20:54;9.60;45.10
42037;DHT22;30340;52.004;5.908;2023-04-03T16:23:20;9.50;45.50
42037;DHT22;30340;52.004;5.908;2023-04-03T16:25:46;9.50;45.90
42037;DHT22;30340;52.004;5.908;2023-04-03T16:28:16;9.50;45.60
42037;DHT22;30340;52.004;5.908;2023-04-03T16:30:44;9.50;45.50
42037;DHT22;30340;52.004;5.908;2023-04-03T16:33:11;9.40;45.50
42037;DHT22;30340;52.004;5.908;2023-04-03T16:35:37;9.40;45.70
42037;DHT22;30340;52.004;5.908;2023-04-03T16:38:03;9.30;45.60
42037;DHT22;30340;52.004;5.908;2023-04-03T16:40:29;9.30;46.10
42037;DHT22;30340;52.004;5.908;2023-04-03T16:42:54;9.30;46.30
42037;DHT22;30340;52.004;5.908;2023-04-03T16:45:20;9.30;46.30
42037;DHT22;30340;52.004;5.908;2023-04-03T16:47:46;9.30;46.10
42037;DHT22;30340;52.004;5.908;2023-04-03T16:50:14;9.30;46.30
42037;DHT22;30340;52.004;5.908;2023-04-03T16:52:39;9.30;46.50
42037;DHT22;30340;52.004;5.908;2023-04-03T16:55:05;9.30;46.40
42037;DHT22;30340;52.004;5.908;2023-04-03T16:57:31;9.30;46.30
42037;DHT22;30340;52.004;5.908;2023-04-03T16:59:56;9.30;46.10
42037;DHT22;30340;52.004;5.908;2023-04-03T17:02:23;9.30;46.40
42037;DHT22;30340;52.004;5.908;2023-04-03T17:04:50;9.30;46.20
42037;DHT22;30340;52.004;5.908;2023-04-03T17:07:17;9.30;46.10
42037;DHT22;30340;52.004;5.908;2023-04-03T17:09:43;9.30;45.80
42037;DHT22;30340;52.004;5.908;2023-04-03T17:12:08;9.30;46.10
42037;DHT22;30340;52.004;5.908;2023-04-03T17:14:34;9.20;45.80
42037;DHT22;30340;52.004;5.908;2023-04-03T17:17:00;9.10;46.20
42037;DHT22;30340;52.004;5.908;2023-04-03T17:19:26;9.10;46.20
42037;DHT22;30340;52.004;5.908;2023-04-03T17:21:52;9.10;46.10
42037;DHT22;30340;52.004;5.908;2023-04-03T17:24:18;9.00;46.30
42037;DHT22;30340;52.004;5.908;2023-04-03T17:26:44;9.00;46.60
42037;DHT22;30340;52.004;5.908;2023-04-03T17:29:09;8.90;46.80
42037;DHT22;30340;52.004;5.908;2023-04-03T17:31:35;8.90;47.00